createdAt,value
2022-09-15T09:55:25.125Z,99548.22
2022-09-15T15:56:23.884Z,99533.66
2022-09-15T15:58:49.967Z,99546.16
2022-09-15T16:01:16.109Z,99547.06
2022-09-15T16:03:42.274Z,99566.97
2022-09-15T16:06:10.168Z,99575.38
2022-09-15T16:08:39.893Z,99573.75
2022-09-15T16:11:08.917Z,99572.88
2022-09-15T16:13:35.389Z,99577.41
2022-09-15T16:16:02.513Z,99568.25
2022-09-15T16:18:29.498Z,99562.03
2022-09-15T16:20:55.619Z,99562.19
2022-09-15T16:23:23.174Z,99565.31
2022-09-15T16:25:55.481Z,99566.13
2022-09-15T16:28:21.790Z,99565.94
2022-09-15T16:30:48.073Z,99562.81
2022-09-15T16:33:16.520Z,99566.94
2022-09-15T16:36:03.938Z,99564.72
2022-09-15T16:38:30.183Z,99563.47
2022-09-15T16:40:56.646Z,99563.28
2022-09-15T16:43:22.773Z,99568.28
2022-09-15T16:45:50.623Z,99563.28
2022-09-15T16:48:17.295Z,99559.97
2022-09-15T16:51:26.711Z,99562.22
2022-09-15T16:53:31.101Z,99567.56
2022-09-15T16:55:57.239Z,99558.19
2022-09-15T16:58:23.804Z,99556.94
2022-09-15T17:00:52.614Z,99552.31
2022-09-15T17:03:24.016Z,99558.06
2022-09-15T17:05:52.046Z,99559.25
2022-09-15T17:08:20.648Z,99562.50
2022-09-15T17:10:48.323Z,99556.69
2022-09-15T17:13:17.540Z,99555.41
2022-09-15T17:15:45.860Z,99558.31
2022-09-15T17:18:16.530Z,99553.28
2022-09-15T17:20:44.559Z,99548.50
2022-09-15T17:23:37.087Z,99553.88
2022-09-15T17:26:15.209Z,99561.13
2022-09-15T17:28:42.341Z,99564.63
2022-09-15T17:31:14.813Z,99575.66
2022-09-15T17:33:41.447Z,99559.34
2022-09-15T17:36:07.842Z,99576.94
2022-09-15T17:38:33.962Z,99571.63
2022-09-15T17:41:00.115Z,99576.00
2022-09-15T17:43:28.693Z,99574.13
2022-09-15T17:45:55.603Z,99568.34
2022-09-15T17:48:22.631Z,99568.84
2022-09-15T17:50:48.847Z,99568.41
2022-09-15T17:53:23.549Z,99563.03
2022-09-15T17:55:50.709Z,99563.66
2022-09-15T17:58:17.348Z,99557.91
2022-09-15T18:00:44.434Z,99563.09
2022-09-15T18:03:34.819Z,99566.41
2022-09-15T18:06:05.278Z,99563.28
2022-09-15T18:08:32.980Z,99561.38
2022-09-15T18:11:00.122Z,99566.53
2022-09-15T18:13:27.998Z,99564.81
2022-09-15T18:15:54.576Z,99575.56
2022-09-15T18:18:23.975Z,99571.25
2022-09-15T18:20:51.567Z,99565.06
2022-09-15T18:23:20.286Z,99581.41
2022-09-15T18:25:47.514Z,99576.06
2022-09-15T18:28:15.207Z,99574.22
2022-09-15T18:30:44.386Z,99576.72
2022-09-15T18:33:16.365Z,99577.97
2022-09-15T18:35:43.705Z,99583.81
2022-09-15T18:38:10.318Z,99583.63
2022-09-15T18:40:36.718Z,99588.84
2022-09-15T18:43:02.987Z,99591.16
2022-09-15T18:45:29.068Z,99589.28
2022-09-15T18:47:55.147Z,99587.16
2022-09-15T18:50:24.393Z,99590.19
2022-09-15T18:52:50.595Z,99589.78
2022-09-15T18:55:22.023Z,99588.09
2022-09-15T18:57:49.163Z,99595.66
2022-09-15T19:00:22.609Z,99598.28
2022-09-15T19:02:48.870Z,99603.19
2022-09-15T19:05:16.582Z,99612.03
2022-09-15T19:07:43.579Z,99618.63
2022-09-15T19:10:11.089Z,99612.81
2022-09-15T19:12:37.736Z,99613.84
2022-09-15T19:15:10.595Z,99607.00
2022-09-15T19:17:38.013Z,99604.69
2022-09-15T19:20:06.608Z,99611.09
2022-09-15T19:22:33.351Z,99596.63
2022-09-15T19:24:59.732Z,99606.13
2022-09-15T19:27:25.891Z,99609.69
2022-09-15T19:29:51.990Z,99616.94
2022-09-15T19:32:18.723Z,99611.75
2022-09-15T19:34:47.088Z,99616.84
2022-09-15T19:37:18.660Z,99616.03
2022-09-15T19:39:45.889Z,99610.63
2022-09-15T19:42:12.514Z,99607.31
2022-09-15T19:44:38.816Z,99606.25
2022-09-15T19:47:05.012Z,99611.31
2022-09-15T19:49:31.123Z,99611.50
2022-09-15T19:51:57.211Z,99616.25
2022-09-15T19:54:27.754Z,99610.56
2022-09-15T19:56:54.204Z,99613.25
2022-09-15T19:59:21.131Z,99610.53
2022-09-15T20:01:47.611Z,99609.66
2022-09-15T20:04:14.124Z,99607.06
2022-09-15T20:06:40.469Z,99603.75
2022-09-15T20:09:07.235Z,99616.97
2022-09-15T20:11:34.508Z,99621.13
2022-09-15T20:14:01.121Z,99623.34
2022-09-15T20:16:28.757Z,99614.22
2022-09-15T20:18:54.953Z,99615.34
2022-09-15T20:21:49.129Z,99623.00
2022-09-15T20:24:16.326Z,99617.53
2022-09-15T20:26:42.411Z,99613.75
2022-09-15T20:29:08.695Z,99617.47
2022-09-15T20:31:34.948Z,99628.09
2022-09-15T20:34:02.259Z,99632.44
2022-09-15T20:36:33.422Z,99632.81
2022-09-15T20:39:01.052Z,99629.50
2022-09-15T20:41:28.921Z,99633.41
2022-09-15T20:43:55.699Z,99631.66
2022-09-15T20:46:23.245Z,99636.66
2022-09-15T20:48:51.302Z,99643.66
2022-09-15T20:51:20.655Z,99634.16
2022-09-15T20:53:50.018Z,99639.06
2022-09-15T20:56:17.701Z,99630.81
2022-09-15T20:58:43.854Z,99638.97
2022-09-15T21:01:15.667Z,99636.28
2022-09-15T21:03:43.226Z,99641.28
2022-09-15T21:06:15.138Z,99643.50
2022-09-15T21:08:42.068Z,99638.97
2022-09-15T21:11:10.837Z,99643.38
2022-09-15T21:13:38.675Z,99648.13
2022-09-15T21:16:08.259Z,99648.97
2022-09-15T21:18:36.610Z,99651.25
2022-09-15T21:21:05.836Z,99651.19
2022-09-15T21:23:38.379Z,99648.03
2022-09-15T21:26:07.276Z,99645.09
2022-09-15T21:28:33.682Z,99648.91
2022-09-15T21:31:10.942Z,99645.84
2022-09-15T21:33:37.859Z,99649.34
2022-09-15T21:36:11.243Z,99652.03
2022-09-15T21:38:40.643Z,99646.28
2022-09-15T21:41:09.702Z,99651.19
2022-09-15T21:43:39.377Z,99653.53
2022-09-15T21:46:19.044Z,99648.69
2022-09-15T21:48:47.763Z,99652.38
2022-09-15T21:51:19.697Z,99656.44
2022-09-15T21:53:52.348Z,99660.25
2022-09-15T21:56:18.595Z,99654.63
2022-09-15T21:58:45.443Z,99656.09
2022-09-15T22:01:26.518Z,99656.16
2022-09-15T22:04:01.629Z,99661.28
2022-09-15T22:06:35.898Z,99661.09
2022-09-15T22:09:07.785Z,99658.59
2022-09-15T22:11:34.512Z,99665.16
2022-09-15T22:14:03.559Z,99659.34
2022-09-15T22:16:29.966Z,99672.75
2022-09-15T22:18:56.493Z,99674.06
2022-09-15T22:21:24.913Z,99667.81
2022-09-15T22:23:53.519Z,99677.44
2022-09-15T22:26:21.917Z,99675.06
2022-09-15T22:28:48.464Z,99683.31
2022-09-15T22:31:16.404Z,99680.34
2022-09-15T22:33:42.961Z,99678.94
2022-09-15T22:36:21.522Z,99687.00
2022-09-15T22:38:49.224Z,99676.19
2022-09-15T22:41:17.524Z,99679.78
2022-09-15T22:43:53.121Z,99688.66
2022-09-15T22:46:19.815Z,99687.91
2022-09-15T22:48:45.956Z,99683.03
2022-09-15T22:51:12.780Z,99681.44
2022-09-15T22:53:39.455Z,99686.63
2022-09-15T22:56:20.878Z,99688.22
2022-09-15T22:58:49.290Z,99681.16
2022-09-15T23:01:21.059Z,99670.66
2022-09-15T23:03:51.666Z,99678.22
2022-09-15T23:06:17.817Z,99680.06
2022-09-15T23:08:43.963Z,99688.00
2022-09-15T23:11:14.204Z,99683.84
2022-09-15T23:13:41.164Z,99681.19
2022-09-15T23:16:08.152Z,99681.06
2022-09-15T23:18:34.860Z,99679.03
2022-09-15T23:21:09.417Z,99674.59
2022-09-15T23:23:37.196Z,99683.94
2022-09-15T23:26:04.755Z,99682.41
2022-09-15T23:28:32.131Z,99684.84
2022-09-15T23:30:59.447Z,99688.81
2022-09-15T23:33:29.268Z,99690.00
2022-09-15T23:35:55.446Z,99687.59
2022-09-15T23:38:21.922Z,99685.84
2022-09-15T23:40:50.042Z,99686.13
2022-09-15T23:43:16.946Z,99688.25
2022-09-15T23:45:43.664Z,99686.03
2022-09-15T23:48:10.447Z,99684.19
2022-09-15T23:50:37.568Z,99681.84
2022-09-15T23:53:04.467Z,99689.06
2022-09-15T23:55:30.550Z,99691.94
2022-09-15T23:57:56.645Z,99684.91
